createdAt,value
2022-12-08T00:02:16.440Z,2.10
2022-12-08T00:04:43.348Z,2.10
2022-12-08T00:07:10.215Z,2.00
2022-12-08T00:09:40.034Z,2.00
2022-12-08T00:12:10.333Z,2.00
2022-12-08T00:14:39.524Z,2.00
2022-12-08T00:17:08.140Z,2.00
2022-12-08T00:19:34.928Z,2.00
2022-12-08T00:22:02.531Z,2.00
2022-12-08T00:24:54.564Z,2.00
2022-12-08T00:27:23.143Z,2.00
2022-12-08T00:29:50.197Z,2.00
2022-12-08T00:32:16.819Z,2.00
2022-12-08T00:34:43.648Z,2.00
2022-12-08T00:37:10.243Z,2.00
2022-12-08T00:39:36.979Z,2.00
2022-12-08T00:42:04.144Z,2.00
2022-12-08T00:44:32.598Z,2.00
2022-12-08T00:46:59.192Z,2.00
2022-12-08T00:49:25.983Z,2.00
2022-12-08T00:51:53.034Z,2.00
2022-12-08T00:54:20.426Z,2.00
2022-12-08T00:56:48.033Z,2.00
2022-12-08T00:59:15.019Z,2.00
2022-12-08T01:01:44.897Z,2.10
2022-12-08T01:04:13.831Z,2.10
2022-12-08T01:06:40.517Z,2.10
2022-12-08T01:09:09.013Z,2.10
2022-12-08T01:11:36.476Z,2.10
2022-12-08T01:14:03.777Z,2.10
2022-12-08T01:16:32.275Z,2.10
2022-12-08T01:19:00.727Z,2.10
2022-12-08T01:21:27.583Z,2.10
2022-12-08T01:23:55.215Z,2.10
2022-12-08T01:26:22.723Z,2.10
2022-12-08T01:28:49.797Z,2.10
2022-12-08T01:31:19.239Z,2.20
2022-12-08T01:33:46.663Z,2.10
2022-12-08T01:36:21.307Z,2.10
2022-12-08T01:38:48.165Z,2.10
2022-12-08T01:41:16.353Z,2.10
2022-12-08T01:44:45.055Z,2.10
2022-12-08T01:47:12.109Z,2.10
2022-12-08T01:49:38.877Z,2.10
2022-12-08T01:52:14.057Z,2.10
2022-12-08T01:54:45.834Z,2.10
2022-12-08T01:57:16.647Z,2.10
2022-12-08T01:59:48.196Z,2.10
2022-12-08T02:02:15.336Z,2.10
2022-12-08T02:04:42.239Z,2.10
2022-12-08T02:07:12.870Z,2.10
2022-12-08T02:09:41.496Z,2.10
2022-12-08T02:12:09.756Z,2.10
2022-12-08T02:14:38.705Z,2.10
2022-12-08T02:17:17.957Z,2.10
2022-12-08T02:20:08.539Z,2.10
2022-12-08T02:22:46.427Z,2.10
2022-12-08T02:25:20.849Z,2.10
2022-12-08T02:28:02.856Z,2.10
2022-12-08T02:30:38.029Z,2.10
2022-12-08T02:33:46.393Z,2.10
2022-12-08T02:36:20.391Z,2.10
2022-12-08T02:38:58.135Z,2.10
2022-12-08T02:41:36.861Z,2.10
2022-12-08T02:44:10.876Z,2.10
2022-12-08T02:46:40.968Z,2.10
2022-12-08T02:49:09.732Z,2.10
2022-12-08T02:51:36.581Z,2.10
2022-12-08T02:54:04.152Z,2.10
2022-12-08T02:56:46.365Z,2.10
2022-12-08T02:59:27.574Z,2.10
2022-12-08T03:02:16.632Z,2.10
2022-12-08T03:04:50.357Z,2.10
2022-12-08T03:07:24.392Z,2.10
2022-12-08T03:09:55.235Z,2.10
2022-12-08T03:12:30.497Z,2.10
2022-12-08T03:15:02.240Z,2.10
2022-12-08T03:17:33.406Z,2.10
2022-12-08T03:20:07.378Z,2.20
2022-12-08T03:22:42.769Z,2.20
2022-12-08T03:25:12.864Z,2.20
2022-12-08T03:27:39.670Z,2.20
2022-12-08T03:30:09.632Z,2.30
2022-12-08T03:32:41.204Z,2.30
2022-12-08T03:35:14.391Z,2.30
2022-12-08T03:37:41.680Z,2.30
2022-12-08T03:40:12.276Z,2.30
2022-12-08T03:42:39.225Z,2.30
2022-12-08T03:45:07.011Z,2.30
2022-12-08T03:47:33.795Z,2.30
2022-12-08T03:50:00.549Z,2.30
2022-12-08T03:52:28.772Z,2.30
2022-12-08T03:54:55.394Z,2.30
2022-12-08T03:57:22.682Z,2.30
2022-12-08T03:59:49.476Z,2.30
2022-12-08T04:02:16.187Z,2.40
2022-12-08T04:04:44.340Z,2.40
2022-12-08T04:07:10.958Z,2.40
2022-12-08T04:09:39.111Z,2.40
2022-12-08T04:12:06.331Z,2.40
2022-12-08T04:14:33.277Z,2.40
2022-12-08T04:16:59.899Z,2.40
2022-12-08T04:19:26.617Z,2.40
2022-12-08T04:21:53.513Z,2.40
2022-12-08T04:24:20.291Z,2.50
2022-12-08T04:26:48.408Z,2.50
2022-12-08T04:29:15.126Z,2.50
2022-12-08T04:31:41.914Z,2.50
2022-12-08T04:34:11.359Z,2.50
2022-12-08T04:36:38.032Z,2.50
2022-12-08T04:39:04.986Z,2.50
2022-12-08T04:41:32.276Z,2.50
2022-12-08T04:44:00.331Z,2.50
2022-12-08T04:46:26.986Z,2.50
2022-12-08T04:48:53.848Z,2.50
2022-12-08T04:51:21.721Z,2.60
2022-12-08T04:56:39.513Z,2.60
2022-12-08T04:59:07.538Z,2.60
2022-12-08T05:01:34.413Z,2.60
2022-12-08T05:04:01.173Z,2.60
2022-12-08T05:06:27.945Z,2.60
2022-12-08T05:08:54.957Z,2.60
2022-12-08T05:11:21.673Z,2.60
2022-12-08T05:13:48.604Z,2.60
2022-12-08T05:16:16.732Z,2.60
2022-12-08T05:18:45.178Z,2.70
2022-12-08T05:21:12.188Z,2.70
2022-12-08T05:23:39.307Z,2.70
2022-12-08T05:26:06.173Z,2.70
2022-12-08T05:28:42.650Z,2.70
2022-12-08T05:31:10.239Z,2.70
2022-12-08T05:33:38.758Z,2.70
2022-12-08T05:36:05.913Z,2.70
2022-12-08T05:38:32.897Z,2.70
2022-12-08T05:40:59.778Z,2.70
2022-12-08T05:43:26.841Z,2.70
2022-12-08T05:45:53.515Z,2.70
2022-12-08T05:48:20.400Z,2.70
2022-12-08T05:50:49.175Z,2.70
2022-12-08T05:53:16.797Z,2.70
2022-12-08T05:55:43.433Z,2.60
2022-12-08T05:58:12.757Z,2.60
2022-12-08T06:00:39.505Z,2.60
2022-12-08T06:03:06.238Z,2.60
2022-12-08T06:05:33.623Z,2.60
2022-12-08T06:08:02.109Z,2.60
2022-12-08T06:10:28.843Z,2.50
2022-12-08T06:12:55.959Z,2.60
2022-12-08T06:15:22.545Z,2.50
2022-12-08T06:17:49.450Z,2.50
2022-12-08T06:20:16.114Z,2.50
2022-12-08T06:22:43.062Z,2.50
2022-12-08T06:25:11.633Z,2.50
2022-12-08T06:27:38.653Z,2.50
2022-12-08T06:30:07.138Z,2.50
2022-12-08T06:32:34.200Z,2.50
2022-12-08T06:35:04.037Z,2.60
2022-12-08T06:37:30.783Z,2.60
2022-12-08T06:39:57.744Z,2.60
2022-12-08T06:42:25.714Z,2.60
2022-12-08T06:44:52.567Z,2.60
2022-12-08T06:47:25.931Z,2.60
2022-12-08T06:49:52.888Z,2.60
2022-12-08T06:52:19.479Z,2.60
2022-12-08T06:54:46.090Z,2.60
2022-12-08T06:57:39.113Z,2.70
2022-12-08T07:00:07.645Z,2.70
2022-12-08T07:02:37.912Z,2.70
2022-12-08T07:05:05.327Z,2.70
2022-12-08T07:07:32.068Z,2.70
2022-12-08T07:09:59.104Z,2.70
2022-12-08T07:12:25.975Z,2.70
2022-12-08T07:14:53.970Z,2.70
2022-12-08T07:17:20.611Z,2.70
2022-12-08T07:19:47.315Z,2.70
2022-12-08T07:22:14.084Z,2.70
2022-12-08T07:24:41.219Z,2.70
2022-12-08T07:27:07.881Z,2.80
2022-12-08T07:29:34.724Z,2.80
2022-12-08T07:32:02.712Z,2.80
2022-12-08T07:34:29.455Z,2.80
2022-12-08T07:36:56.429Z,2.80
2022-12-08T07:39:23.156Z,2.80
2022-12-08T07:41:50.027Z,2.80
2022-12-08T07:44:16.827Z,2.80
2022-12-08T07:46:43.493Z,2.90
2022-12-08T07:49:11.632Z,2.90
2022-12-08T07:51:38.215Z,2.90
2022-12-08T07:54:05.226Z,3.00
2022-12-08T07:56:31.859Z,3.00
2022-12-08T07:58:58.737Z,3.00
2022-12-08T08:01:26.982Z,3.00
2022-12-08T08:03:55.610Z,3.00
2022-12-08T08:06:23.964Z,3.10
2022-12-08T08:08:50.647Z,3.10
2022-12-08T08:11:21.391Z,3.10
2022-12-08T08:13:48.840Z,3.20
2022-12-08T08:16:15.811Z,3.20
2022-12-08T08:18:42.742Z,3.20
2022-12-08T08:21:43.174Z,3.20
2022-12-08T08:23:57.491Z,3.20
2022-12-08T08:26:24.520Z,3.30
2022-12-08T08:28:51.294Z,3.30
2022-12-08T08:31:18.217Z,3.30
2022-12-08T08:33:45.102Z,3.30
2022-12-08T08:36:12.284Z,3.30
2022-12-08T08:38:39.335Z,3.30
2022-12-08T08:41:10.938Z,3.30
2022-12-08T08:43:38.929Z,3.30
2022-12-08T08:46:06.357Z,3.30
2022-12-08T08:48:33.266Z,3.20
2022-12-08T08:51:07.582Z,3.20
2022-12-08T08:53:34.599Z,3.20
2022-12-08T08:56:02.923Z,3.20
2022-12-08T08:58:31.284Z,3.10
2022-12-08T09:00:58.160Z,3.10
2022-12-08T09:03:25.051Z,3.10
2022-12-08T09:05:52.636Z,3.10
2022-12-08T09:08:19.464Z,3.10
2022-12-08T09:10:46.906Z,3.10
2022-12-08T09:13:13.508Z,3.20
2022-12-08T09:15:41.591Z,3.20
2022-12-08T09:18:08.224Z,3.20
2022-12-08T09:20:35.421Z,3.20
2022-12-08T09:23:02.229Z,3.20
2022-12-08T09:25:29.031Z,3.20
2022-12-08T09:28:21.029Z,3.20
2022-12-08T09:30:51.066Z,3.20
2022-12-08T09:33:17.922Z,3.30
2022-12-08T09:35:44.754Z,3.30
2022-12-08T09:38:11.381Z,3.30
2022-12-08T09:40:47.652Z,3.40
2022-12-08T09:43:25.270Z,3.40
2022-12-08T09:45:55.167Z,3.50
2022-12-08T09:48:25.261Z,3.50
2022-12-08T09:50:55.149Z,3.50
2022-12-08T09:53:30.632Z,3.50
2022-12-08T09:56:08.464Z,3.60
2022-12-08T09:58:47.287Z,3.60
2022-12-08T10:01:16.344Z,3.60
2022-12-08T10:03:43.931Z,3.50
2022-12-08T10:06:19.097Z,3.50
2022-12-08T10:08:57.180Z,3.50
2022-12-08T10:11:30.926Z,3.50
2022-12-08T10:14:10.079Z,3.50
2022-12-08T10:16:41.748Z,3.50
2022-12-08T10:19:14.657Z,3.60
2022-12-08T10:21:41.363Z,3.50
2022-12-08T10:24:16.114Z,3.50
2022-12-08T10:26:43.213Z,3.60
2022-12-08T10:29:12.524Z,3.60
2022-12-08T10:31:40.883Z,3.50
2022-12-08T10:34:17.428Z,3.60
2022-12-08T10:36:49.311Z,3.60
2022-12-08T10:39:37.471Z,3.60
2022-12-08T10:42:16.801Z,3.50
2022-12-08T10:44:54.200Z,3.50
2022-12-08T10:47:24.603Z,3.50
2022-12-08T10:50:15.980Z,3.40
2022-12-08T10:52:42.596Z,3.40
2022-12-08T10:55:16.849Z,3.40
2022-12-08T10:57:43.947Z,3.40
2022-12-08T11:00:14.704Z,3.40
2022-12-08T11:02:58.305Z,3.40
2022-12-08T11:05:29.235Z,3.40
2022-12-08T11:07:56.551Z,3.50
2022-12-08T11:10:32.014Z,3.50
2022-12-08T11:13:01.421Z,3.60
2022-12-08T11:15:34.542Z,3.60
2022-12-08T11:18:08.550Z,3.70
2022-12-08T11:20:44.508Z,3.60
2022-12-08T11:23:23.843Z,3.60
2022-12-08T11:25:53.673Z,3.60
2022-12-08T11:28:24.185Z,3.60
2022-12-08T11:30:56.670Z,3.60
2022-12-08T11:33:25.592Z,3.60
2022-12-08T11:35:59.679Z,3.60
2022-12-08T11:38:28.473Z,3.60
2022-12-08T11:40:59.261Z,3.60
2022-12-08T11:43:34.756Z,3.70
2022-12-08T11:46:03.571Z,3.70
2022-12-08T11:48:35.138Z,3.80
2022-12-08T11:51:09.460Z,3.90
2022-12-08T11:53:41.802Z,3.90
2022-12-08T11:56:16.501Z,3.90
2022-12-08T11:58:47.571Z,3.90
2022-12-08T12:01:19.104Z,3.90
2022-12-08T12:03:52.906Z,4.00
2022-12-08T12:06:56.271Z,4.00
2022-12-08T12:09:36.876Z,4.10
2022-12-08T12:12:12.472Z,4.10
2022-12-08T12:14:56.400Z,4.20
2022-12-08T12:17:33.907Z,4.20
2022-12-08T12:20:05.075Z,4.30
2022-12-08T12:22:35.697Z,4.40
2022-12-08T12:25:03.330Z,4.40
2022-12-08T12:27:36.501Z,4.40
2022-12-08T12:30:07.975Z,4.30
2022-12-08T12:32:44.471Z,4.20
2022-12-08T12:35:16.467Z,4.10
2022-12-08T12:37:44.465Z,4.10
2022-12-08T12:40:18.902Z,4.10
2022-12-08T12:42:47.623Z,4.00
2022-12-08T12:45:28.310Z,4.00
2022-12-08T12:48:14.164Z,4.10
2022-12-08T12:50:43.065Z,4.10
2022-12-08T12:53:43.379Z,4.10
2022-12-08T12:56:11.343Z,4.10
2022-12-08T12:58:40.199Z,4.10
2022-12-08T13:01:46.973Z,4.20
2022-12-08T13:04:14.111Z,4.30
2022-12-08T13:06:44.088Z,4.30
2022-12-08T13:09:23.272Z,4.20
2022-12-08T13:11:54.233Z,4.20
2022-12-08T13:14:48.762Z,4.20
2022-12-08T13:17:23.053Z,4.20
2022-12-08T13:19:55.658Z,4.10
2022-12-08T13:22:59.639Z,4.10
2022-12-08T13:25:50.688Z,4.00
2022-12-08T13:28:24.697Z,3.90
2022-12-08T13:30:52.700Z,3.90
2022-12-08T13:33:24.456Z,3.90
2022-12-08T13:36:00.399Z,3.80
2022-12-08T13:38:31.203Z,3.80
2022-12-08T13:41:02.907Z,3.80
2022-12-08T13:43:47.716Z,3.80
2022-12-08T13:51:07.016Z,3.80
2022-12-08T13:58:29.282Z,3.80
2022-12-08T14:01:04.627Z,3.80
2022-12-08T14:04:12.824Z,3.80
2022-12-08T14:06:38.037Z,3.70
2022-12-08T14:09:11.357Z,3.70
2022-12-08T14:11:39.689Z,3.70
2022-12-08T14:14:14.458Z,3.60
2022-12-08T14:16:53.811Z,3.60
2022-12-08T14:19:22.679Z,3.60
2022-12-08T14:21:57.499Z,3.60
2022-12-08T14:24:51.512Z,3.60
2022-12-08T14:27:22.550Z,3.60
2022-12-08T14:30:19.957Z,3.60
2022-12-08T14:32:50.668Z,3.60
2022-12-08T14:35:23.962Z,3.60
2022-12-08T14:37:54.528Z,3.50
2022-12-08T14:40:24.411Z,3.50
2022-12-08T14:42:53.690Z,3.50
2022-12-08T14:45:21.219Z,3.50
2022-12-08T14:47:49.168Z,3.50
2022-12-08T14:50:38.717Z,3.50
2022-12-08T14:53:11.903Z,3.50
2022-12-08T14:55:38.940Z,3.60
2022-12-08T15:00:58.366Z,3.50
2022-12-08T15:03:28.780Z,3.60
2022-12-08T15:05:58.505Z,3.50
2022-12-08T15:08:25.346Z,3.50
2022-12-08T15:11:13.414Z,3.50
2022-12-08T15:13:44.822Z,3.50
2022-12-08T15:16:25.476Z,3.50
2022-12-08T15:19:03.922Z,3.50
2022-12-08T15:21:36.192Z,3.50
2022-12-08T15:24:03.128Z,3.50
2022-12-08T15:26:35.322Z,3.50
2022-12-08T15:29:11.080Z,3.50
2022-12-08T15:31:38.272Z,3.50
2022-12-08T15:34:06.488Z,3.40
2022-12-08T15:36:33.646Z,3.40
2022-12-08T15:39:00.601Z,3.40
2022-12-08T15:41:27.188Z,3.40
2022-12-08T15:43:54.254Z,3.40
2022-12-08T15:46:21.339Z,3.30
2022-12-08T15:48:48.193Z,3.30
2022-12-08T15:51:16.292Z,3.30
2022-12-08T15:53:43.450Z,3.20
2022-12-08T15:56:27.399Z,3.20
2022-12-08T15:58:56.891Z,3.20
2022-12-08T16:01:24.674Z,3.20
2022-12-08T16:09:31.199Z,3.20
2022-12-08T16:12:07.559Z,3.20
2022-12-08T16:17:22.758Z,3.20
2022-12-08T16:19:49.694Z,3.30
2022-12-08T16:25:18.717Z,3.30
2022-12-08T16:30:59.515Z,3.20
2022-12-08T16:33:26.239Z,3.20
2022-12-08T16:35:53.238Z,3.20
2022-12-08T16:38:21.206Z,3.20
2022-12-08T16:40:47.849Z,3.20
2022-12-08T16:43:14.892Z,3.20
2022-12-08T16:45:44.986Z,3.20
2022-12-08T16:48:14.608Z,3.20
2022-12-08T16:50:44.968Z,3.20
2022-12-08T16:53:12.907Z,3.20
2022-12-08T16:55:46.184Z,3.20
2022-12-08T16:58:12.976Z,3.20
2022-12-08T17:00:40.139Z,3.20
2022-12-08T17:03:07.932Z,3.20
2022-12-08T17:05:35.712Z,3.10
2022-12-08T17:08:02.463Z,3.10
2022-12-08T17:10:30.975Z,3.10
2022-12-08T17:12:58.986Z,3.10
2022-12-08T17:15:26.112Z,3.10
2022-12-08T17:17:53.134Z,3.10
2022-12-08T17:20:22.219Z,3.10
2022-12-08T17:22:49.649Z,3.00
2022-12-08T17:25:16.342Z,3.00
2022-12-08T17:27:43.061Z,2.90
2022-12-08T17:30:36.059Z,2.90
2022-12-08T17:33:02.849Z,2.90
2022-12-08T17:35:29.753Z,2.90
2022-12-08T17:39:27.119Z,2.90
2022-12-08T17:41:53.941Z,2.90
2022-12-08T17:44:20.703Z,2.80
2022-12-08T17:46:52.460Z,2.80
2022-12-08T17:49:21.425Z,2.80
2022-12-08T17:51:49.094Z,2.80
2022-12-08T17:54:16.475Z,2.70
2022-12-08T17:57:51.999Z,3.50
2022-12-08T18:00:19.482Z,3.80
2022-12-08T18:02:46.660Z,3.90
2022-12-08T18:05:13.731Z,3.90
2022-12-08T18:07:40.748Z,3.80
2022-12-08T18:10:08.480Z,3.80
2022-12-08T18:12:35.588Z,3.70
2022-12-08T18:15:06.632Z,3.70
2022-12-08T18:17:33.432Z,3.70
2022-12-08T18:20:00.349Z,3.70
2022-12-08T18:22:27.335Z,3.60
2022-12-08T18:24:54.326Z,3.60
2022-12-08T18:27:21.138Z,3.60
2022-12-08T18:29:47.939Z,3.60
2022-12-08T18:32:16.271Z,3.60
2022-12-08T18:34:43.241Z,3.50
2022-12-08T18:37:09.972Z,3.50
2022-12-08T18:39:36.848Z,3.50
2022-12-08T18:42:04.101Z,3.50
2022-12-08T18:44:30.936Z,3.50
2022-12-08T18:46:57.677Z,3.40
2022-12-08T18:49:25.996Z,3.40
2022-12-08T18:51:52.907Z,3.40
2022-12-08T18:54:22.073Z,3.40
2022-12-08T18:56:54.555Z,3.30
2022-12-08T19:02:12.730Z,3.30
2022-12-08T19:04:41.610Z,3.30
2022-12-08T19:07:08.554Z,3.20
2022-12-08T19:09:39.263Z,3.20
2022-12-08T19:12:06.835Z,3.20
2022-12-08T19:14:34.757Z,3.20
2022-12-08T19:17:02.557Z,3.10
2022-12-08T19:19:29.355Z,3.10
2022-12-08T19:21:57.728Z,3.00
2022-12-08T19:24:24.814Z,3.00
2022-12-08T19:26:52.181Z,2.90
2022-12-08T19:32:10.747Z,2.90
2022-12-08T19:34:37.609Z,2.90
2022-12-08T19:37:05.979Z,3.00
2022-12-08T19:39:32.753Z,3.00
2022-12-08T19:41:59.671Z,2.90
2022-12-08T19:44:28.970Z,3.00
2022-12-08T19:46:55.961Z,3.00
2022-12-08T19:49:22.949Z,3.00
2022-12-08T19:51:49.764Z,3.00
2022-12-08T19:54:18.012Z,3.00
2022-12-08T19:56:44.879Z,3.00
2022-12-08T19:59:11.882Z,3.00
2022-12-08T20:01:39.086Z,3.10
2022-12-08T20:04:06.110Z,3.10
2022-12-08T20:06:32.938Z,3.10
2022-12-08T20:09:00.195Z,3.10
2022-12-08T20:11:28.246Z,3.10
2022-12-08T20:13:55.249Z,3.10
2022-12-08T20:16:22.268Z,3.10
2022-12-08T20:18:49.803Z,3.10
2022-12-08T20:21:17.275Z,3.20
2022-12-08T20:23:44.207Z,3.20
2022-12-08T20:26:13.376Z,3.20
2022-12-08T20:28:42.028Z,3.20
2022-12-08T20:31:17.131Z,3.20
2022-12-08T20:33:44.215Z,3.20
2022-12-08T20:36:16.066Z,3.30
2022-12-08T20:38:43.558Z,3.30
2022-12-08T20:41:11.435Z,3.30
2022-12-08T20:43:38.635Z,3.30
2022-12-08T20:46:10.216Z,3.30
2022-12-08T20:48:37.352Z,3.30
2022-12-08T20:51:05.165Z,3.30
2022-12-08T20:53:32.483Z,3.30
2022-12-08T20:55:59.596Z,3.30
2022-12-08T20:58:26.628Z,3.20
2022-12-08T21:00:53.479Z,3.20
2022-12-08T21:03:22.237Z,3.20
2022-12-08T21:05:50.700Z,3.20
2022-12-08T21:08:18.506Z,3.20
2022-12-08T21:10:45.905Z,3.20
2022-12-08T21:13:12.825Z,3.20
2022-12-08T21:15:45.952Z,3.20
2022-12-08T21:18:13.257Z,3.10
2022-12-08T21:20:42.334Z,3.10
2022-12-08T21:23:09.789Z,3.10
2022-12-08T21:25:41.278Z,3.10
2022-12-08T21:28:08.727Z,3.10
2022-12-08T21:30:35.699Z,3.10
2022-12-08T21:33:02.781Z,3.10
2022-12-08T21:35:31.223Z,3.10
2022-12-08T21:37:59.566Z,3.10
2022-12-08T21:40:26.929Z,3.10
2022-12-08T21:42:53.862Z,3.10
2022-12-08T21:45:21.927Z,3.10
2022-12-08T21:47:50.206Z,3.00
2022-12-08T21:50:18.530Z,3.00
2022-12-08T21:52:48.295Z,3.00
2022-12-08T21:55:17.841Z,3.00
2022-12-08T21:57:44.790Z,2.90
2022-12-08T22:00:15.857Z,2.90
2022-12-08T22:03:13.476Z,2.80
2022-12-08T22:06:06.083Z,2.80
2022-12-08T22:08:33.546Z,2.80
2022-12-08T22:11:02.885Z,2.80
2022-12-08T22:13:30.023Z,2.80
2022-12-08T22:15:57.870Z,2.80
2022-12-08T22:18:25.127Z,2.80
2022-12-08T22:20:52.377Z,2.70
2022-12-08T22:23:20.242Z,2.70
2022-12-08T22:25:56.468Z,2.70
2022-12-08T22:28:25.329Z,2.60
2022-12-08T22:30:52.970Z,2.60
2022-12-08T22:33:20.167Z,2.60
2022-12-08T22:35:56.036Z,2.60
2022-12-08T22:38:22.921Z,2.60
2022-12-08T22:40:49.715Z,2.60
2022-12-08T22:43:17.316Z,2.60
2022-12-08T22:45:45.502Z,2.50
2022-12-08T22:48:12.955Z,2.50
2022-12-08T22:50:40.120Z,2.40
2022-12-08T22:53:07.476Z,2.40
2022-12-08T22:55:34.483Z,2.30
2022-12-08T22:58:01.196Z,2.30
2022-12-08T23:00:28.143Z,2.20
2022-12-08T23:02:56.273Z,2.20
2022-12-08T23:05:23.564Z,2.10
2022-12-08T23:07:50.988Z,2.10
2022-12-08T23:10:18.310Z,2.10
2022-12-08T23:12:45.450Z,2.00
2022-12-08T23:15:12.425Z,2.00
2022-12-08T23:17:39.360Z,1.90
2022-12-08T23:20:09.509Z,1.90
2022-12-08T23:22:36.937Z,1.80
2022-12-08T23:25:04.620Z,1.80
2022-12-08T23:27:32.038Z,1.80
2022-12-08T23:29:59.093Z,1.70
2022-12-08T23:32:26.344Z,1.70
2022-12-08T23:34:53.277Z,1.70
2022-12-08T23:37:22.274Z,1.70
2022-12-08T23:39:49.300Z,1.60
2022-12-08T23:42:16.559Z,1.60
2022-12-08T23:44:43.821Z,1.60
2022-12-08T23:47:10.948Z,1.60
2022-12-08T23:49:37.961Z,1.60
2022-12-08T23:52:05.338Z,1.50
2022-12-08T23:54:33.856Z,1.50
2022-12-08T23:57:01.047Z,1.50
2022-12-08T23:59:27.919Z,1.60
